createdAt,value
2022-12-18T00:01:22.044Z,11.48
2022-12-18T00:03:49.468Z,11.25
2022-12-18T00:06:16.459Z,11.15
2022-12-18T00:08:45.500Z,10.73
2022-12-18T00:11:14.804Z,10.57
2022-12-18T00:13:42.112Z,11.57
2022-12-18T00:16:13.374Z,11.70
2022-12-18T00:18:41.154Z,10.63
2022-12-18T00:21:09.598Z,10.82
2022-12-18T00:23:37.737Z,12.27
2022-12-18T00:26:07.609Z,11.32
2022-12-18T00:28:34.472Z,10.45
2022-12-18T00:31:07.059Z,10.95
2022-12-18T00:33:35.267Z,10.32
2022-12-18T00:36:07.197Z,10.40
2022-12-18T00:38:34.566Z,11.70
2022-12-18T00:41:01.052Z,11.20
2022-12-18T00:43:27.821Z,11.93
2022-12-18T00:45:54.561Z,10.57
2022-12-18T00:48:21.477Z,10.23
2022-12-18T00:50:51.668Z,10.35
2022-12-18T00:53:18.916Z,10.63
2022-12-18T00:55:46.218Z,11.20
2022-12-18T00:58:13.822Z,11.98
2022-12-18T01:00:40.634Z,10.07
2022-12-18T01:03:07.570Z,10.57
2022-12-18T01:05:40.986Z,10.60
2022-12-18T01:08:07.557Z,10.60
2022-12-18T01:10:34.108Z,9.63
2022-12-18T01:13:00.628Z,10.70
2022-12-18T01:15:27.152Z,10.60
2022-12-18T01:17:54.364Z,11.05
2022-12-18T01:20:21.606Z,11.48
2022-12-18T01:22:48.071Z,10.57
2022-12-18T01:25:14.572Z,10.47
2022-12-18T01:27:41.052Z,11.18
2022-12-18T01:30:08.207Z,10.70
2022-12-18T01:32:34.723Z,10.52
2022-12-18T01:35:01.234Z,11.90
2022-12-18T01:37:27.833Z,10.90
2022-12-18T01:39:55.579Z,11.07
2022-12-18T01:42:22.969Z,11.50
2022-12-18T01:45:21.225Z,10.15
2022-12-18T01:47:50.617Z,10.25
2022-12-18T01:50:23.354Z,11.40
2022-12-18T01:52:56.607Z,10.15
2022-12-18T01:55:26.090Z,11.10
2022-12-18T01:57:55.985Z,11.35
2022-12-18T02:00:24.144Z,11.77
2022-12-18T02:02:50.936Z,11.77
2022-12-18T02:05:21.021Z,12.95
2022-12-18T02:08:02.702Z,11.63
2022-12-18T02:10:45.541Z,12.02
2022-12-18T02:13:20.864Z,11.15
2022-12-18T02:16:03.628Z,13.00
2022-12-18T02:18:38.004Z,12.75
2022-12-18T02:21:19.864Z,11.90
2022-12-18T02:23:50.683Z,11.95
2022-12-18T02:26:37.236Z,12.98
2022-12-18T02:29:09.289Z,11.90
2022-12-18T02:31:44.191Z,11.57
2022-12-18T02:34:12.800Z,13.70
2022-12-18T02:36:43.387Z,11.88
2022-12-18T02:39:12.627Z,12.25
2022-12-18T02:41:40.083Z,11.80
2022-12-18T02:44:12.307Z,10.95
2022-12-18T02:46:51.176Z,11.80
2022-12-18T02:49:26.726Z,11.50
2022-12-18T02:52:06.095Z,11.27
2022-12-18T02:55:06.084Z,11.13
2022-12-18T02:57:43.889Z,10.95
2022-12-18T03:00:31.737Z,9.88
2022-12-18T03:03:33.827Z,10.45
2022-12-18T03:06:24.684Z,9.00
2022-12-18T03:08:59.488Z,9.27
2022-12-18T03:11:55.806Z,10.02
2022-12-18T03:14:26.469Z,8.85
2022-12-18T03:16:59.181Z,9.77
2022-12-18T03:19:30.502Z,9.73
2022-12-18T03:21:58.800Z,9.50
2022-12-18T03:24:28.866Z,10.55
2022-12-18T03:27:01.170Z,9.05
2022-12-18T03:29:35.036Z,10.07
2022-12-18T03:32:12.600Z,8.57
2022-12-18T03:34:43.458Z,8.83
2022-12-18T03:37:09.931Z,9.13
2022-12-18T03:39:37.427Z,8.63
2022-12-18T03:42:18.857Z,8.15
2022-12-18T03:45:09.915Z,8.65
2022-12-18T03:47:42.433Z,7.63
2022-12-18T03:50:27.478Z,8.60
2022-12-18T03:53:01.068Z,7.85
2022-12-18T03:55:32.057Z,8.35
2022-12-18T03:58:00.714Z,7.70
2022-12-18T04:00:28.137Z,7.80
2022-12-18T04:02:56.976Z,8.80
2022-12-18T04:05:26.554Z,7.57
2022-12-18T04:07:54.930Z,8.27
2022-12-18T04:10:21.525Z,7.95
2022-12-18T04:12:48.081Z,8.27
2022-12-18T04:15:15.152Z,8.57
2022-12-18T04:17:49.564Z,8.18
2022-12-18T04:20:16.865Z,8.10
2022-12-18T04:22:43.659Z,7.00
2022-12-18T04:25:10.152Z,7.83
2022-12-18T04:27:36.616Z,7.03
2022-12-18T04:30:03.634Z,7.60
2022-12-18T04:32:30.089Z,7.40
2022-12-18T04:34:56.583Z,8.32
2022-12-18T04:37:23.156Z,8.10
2022-12-18T04:39:49.610Z,7.90
2022-12-18T04:42:16.073Z,9.10
2022-12-18T04:44:42.619Z,12.25
2022-12-18T04:47:09.124Z,10.93
2022-12-18T04:49:35.608Z,9.03
2022-12-18T04:52:02.090Z,9.68
2022-12-18T04:54:28.755Z,9.10
2022-12-18T04:56:55.346Z,8.65
2022-12-18T04:59:21.879Z,8.43
2022-12-18T05:01:48.654Z,8.47
2022-12-18T05:04:15.299Z,8.60
2022-12-18T05:06:41.868Z,7.93
2022-12-18T05:09:08.355Z,8.57
2022-12-18T05:11:37.414Z,7.65
2022-12-18T05:14:03.942Z,8.00
2022-12-18T05:16:30.466Z,7.78
2022-12-18T05:18:57.002Z,6.93
2022-12-18T05:21:23.477Z,7.03
2022-12-18T05:23:49.952Z,7.88
2022-12-18T05:26:19.118Z,8.07
2022-12-18T05:28:46.874Z,6.03
2022-12-18T05:31:13.902Z,6.03
2022-12-18T05:33:40.780Z,6.55
2022-12-18T05:36:09.758Z,6.20
2022-12-18T05:38:38.057Z,7.40
2022-12-18T05:41:05.821Z,6.82
2022-12-18T05:43:34.353Z,6.53
2022-12-18T05:46:08.230Z,5.68
2022-12-18T05:48:35.203Z,5.78
2022-12-18T05:51:06.997Z,6.03
2022-12-18T05:53:33.597Z,7.47
2022-12-18T05:56:09.265Z,6.72
2022-12-18T05:58:36.032Z,6.10
2022-12-18T06:01:14.773Z,7.25
2022-12-18T06:03:41.993Z,5.87
2022-12-18T06:06:20.493Z,5.68
2022-12-18T06:08:47.428Z,6.00
2022-12-18T06:11:16.719Z,6.55
2022-12-18T06:13:43.204Z,5.63
2022-12-18T06:16:09.783Z,6.87
2022-12-18T06:18:36.638Z,6.55
2022-12-18T06:21:03.100Z,5.50
2022-12-18T06:23:29.588Z,4.45
2022-12-18T06:25:56.063Z,6.03
2022-12-18T06:28:22.620Z,5.87
2022-12-18T06:30:49.893Z,6.57
2022-12-18T06:33:17.561Z,6.25
2022-12-18T06:35:44.115Z,6.80
2022-12-18T06:38:10.600Z,6.22
2022-12-18T06:40:38.889Z,5.23
2022-12-18T06:43:05.684Z,5.70
2022-12-18T06:45:32.372Z,5.28
2022-12-18T06:47:58.936Z,6.82
2022-12-18T06:50:25.784Z,5.20
2022-12-18T06:52:52.284Z,5.10
2022-12-18T06:55:19.004Z,6.03
2022-12-18T06:57:45.468Z,5.18
2022-12-18T07:00:12.842Z,5.05
2022-12-18T07:02:39.475Z,5.53
2022-12-18T07:05:10.697Z,5.53
2022-12-18T07:07:37.958Z,4.82
2022-12-18T07:10:04.948Z,5.25
2022-12-18T07:12:31.424Z,5.10
2022-12-18T07:14:58.091Z,5.65
2022-12-18T07:17:24.811Z,6.27
2022-12-18T07:19:51.439Z,6.05
2022-12-18T07:22:18.067Z,4.03
2022-12-18T07:24:44.552Z,5.75
2022-12-18T07:27:10.994Z,4.82
2022-12-18T07:29:37.469Z,5.80
2022-12-18T07:32:04.828Z,5.88
2022-12-18T07:34:31.489Z,5.13
2022-12-18T07:36:57.993Z,5.47
2022-12-18T07:39:24.551Z,6.22
2022-12-18T07:42:11.060Z,6.33
2022-12-18T07:44:38.195Z,5.93
2022-12-18T07:47:07.789Z,5.35
2022-12-18T07:49:38.285Z,5.57
2022-12-18T07:52:04.880Z,5.82
2022-12-18T07:54:31.343Z,5.83
2022-12-18T07:56:57.809Z,5.35
2022-12-18T07:59:24.289Z,6.82
2022-12-18T08:01:50.885Z,5.85
2022-12-18T08:04:17.492Z,5.20
2022-12-18T08:06:47.710Z,6.50
2022-12-18T08:09:15.015Z,6.43
2022-12-18T08:11:41.504Z,6.97
2022-12-18T08:14:07.973Z,6.35
2022-12-18T08:16:34.605Z,7.00
2022-12-18T08:19:01.364Z,5.47
2022-12-18T08:21:30.577Z,5.60
2022-12-18T08:23:59.706Z,7.07
2022-12-18T08:26:29.355Z,7.13
2022-12-18T08:28:57.361Z,6.45
2022-12-18T08:31:24.578Z,7.17
2022-12-18T08:33:52.466Z,7.35
2022-12-18T08:36:20.476Z,6.43
2022-12-18T08:38:48.000Z,6.45
2022-12-18T08:41:17.121Z,6.60
2022-12-18T08:44:02.695Z,8.60
2022-12-18T08:46:35.219Z,7.43
2022-12-18T08:49:02.014Z,7.15
2022-12-18T08:51:29.460Z,7.40
2022-12-18T08:53:56.208Z,11.70
2022-12-18T08:56:23.163Z,13.10
2022-12-18T08:58:53.373Z,13.45
2022-12-18T09:01:20.903Z,13.32
2022-12-18T09:03:47.492Z,13.48
2022-12-18T09:06:16.976Z,16.58
2022-12-18T09:08:47.068Z,12.07
2022-12-18T09:11:21.733Z,7.70
2022-12-18T09:13:48.327Z,7.30
2022-12-18T09:16:14.900Z,8.23
2022-12-18T09:18:41.998Z,7.55
2022-12-18T09:21:14.310Z,7.80
2022-12-18T09:23:41.166Z,12.48
2022-12-18T09:26:07.782Z,9.00
2022-12-18T09:28:34.622Z,7.82
2022-12-18T09:31:05.772Z,7.53
2022-12-18T09:33:32.333Z,7.73
2022-12-18T09:35:58.846Z,5.82
2022-12-18T09:38:25.322Z,10.45
2022-12-18T09:41:00.675Z,11.82
2022-12-18T09:43:45.233Z,9.27
2022-12-18T09:46:19.860Z,9.00
2022-12-18T09:49:13.647Z,7.25
2022-12-18T09:51:50.353Z,7.07
2022-12-18T09:54:27.759Z,9.48
2022-12-18T09:56:54.692Z,8.15
2022-12-18T09:59:34.359Z,7.60
2022-12-18T10:02:01.149Z,7.68
2022-12-18T10:04:32.834Z,7.60
2022-12-18T10:07:10.140Z,7.47
2022-12-18T10:09:57.016Z,9.38
2022-12-18T10:12:43.677Z,7.37
2022-12-18T10:15:10.096Z,7.05
2022-12-18T10:17:55.605Z,8.15
2022-12-18T10:20:30.730Z,8.05
2022-12-18T10:22:57.174Z,7.88
2022-12-18T10:25:39.696Z,7.60
2022-12-18T10:28:15.250Z,8.52
2022-12-18T10:30:43.105Z,8.10
2022-12-18T10:33:16.849Z,6.65
2022-12-18T10:35:45.301Z,7.63
2022-12-18T10:38:17.594Z,9.13
2022-12-18T10:40:57.778Z,6.57
2022-12-18T10:43:29.102Z,7.45
2022-12-18T10:46:18.151Z,7.35
2022-12-18T10:48:47.572Z,8.00
2022-12-18T10:51:34.439Z,8.40
2022-12-18T10:54:14.121Z,6.60
2022-12-18T10:56:40.734Z,7.97
2022-12-18T10:59:10.894Z,8.77
2022-12-18T11:01:48.392Z,8.52
2022-12-18T11:04:27.161Z,9.33
2022-12-18T11:07:01.068Z,7.35
2022-12-18T11:09:33.317Z,8.02
2022-12-18T11:12:03.311Z,9.05
2022-12-18T11:15:00.640Z,9.55
2022-12-18T11:17:33.442Z,9.50
2022-12-18T11:20:20.447Z,8.88
2022-12-18T11:22:58.168Z,8.38
2022-12-18T11:25:33.339Z,10.57
2022-12-18T11:28:03.632Z,9.85
2022-12-18T11:30:31.525Z,8.60
2022-12-18T11:33:06.723Z,9.07
2022-12-18T11:35:53.841Z,9.15
2022-12-18T11:38:29.913Z,11.10
2022-12-18T11:41:01.393Z,9.40
2022-12-18T11:43:39.207Z,10.20
2022-12-18T11:46:17.675Z,10.35
2022-12-18T11:49:15.310Z,9.68
2022-12-18T11:52:01.324Z,9.27
2022-12-18T11:54:27.820Z,9.90
2022-12-18T11:57:04.384Z,9.20
2022-12-18T12:00:04.881Z,10.20
2022-12-18T12:02:49.931Z,9.23
2022-12-18T12:05:30.777Z,8.13
2022-12-18T12:08:42.801Z,10.13
2022-12-18T12:11:40.295Z,7.77
2022-12-18T12:14:19.099Z,9.23
2022-12-18T12:16:56.336Z,8.40
2022-12-18T12:19:29.139Z,9.52
2022-12-18T12:22:18.872Z,9.98
2022-12-18T12:24:54.711Z,9.40
2022-12-18T12:27:50.544Z,10.02
2022-12-18T12:30:22.689Z,9.15
2022-12-18T12:33:23.124Z,9.65
2022-12-18T12:36:23.156Z,9.35
2022-12-18T12:38:57.823Z,10.07
2022-12-18T12:41:50.888Z,9.85
2022-12-18T12:44:26.640Z,9.70
2022-12-18T12:47:00.353Z,10.05
2022-12-18T12:49:30.216Z,9.25
2022-12-18T12:52:05.328Z,9.37
2022-12-18T12:54:34.781Z,8.80
2022-12-18T12:57:21.862Z,10.43
2022-12-18T12:59:59.306Z,8.63
2022-12-18T13:02:45.093Z,10.10
2022-12-18T13:05:28.146Z,8.77
2022-12-18T13:08:00.366Z,9.48
2022-12-18T13:10:34.053Z,8.82
2022-12-18T13:13:09.220Z,9.05
2022-12-18T13:15:51.434Z,9.43
2022-12-18T13:18:26.282Z,7.50
2022-12-18T13:21:11.535Z,9.10
2022-12-18T13:23:42.192Z,8.18
2022-12-18T13:26:09.289Z,7.93
2022-12-18T13:28:48.033Z,6.60
2022-12-18T13:31:30.859Z,8.43
2022-12-18T13:34:26.746Z,8.68
2022-12-18T13:36:56.714Z,8.70
2022-12-18T13:39:35.316Z,8.43
2022-12-18T13:42:05.450Z,8.43
2022-12-18T13:44:44.481Z,10.43
2022-12-18T13:47:38.442Z,7.15
2022-12-18T13:50:33.949Z,6.70
2022-12-18T13:53:08.815Z,5.97
2022-12-18T13:55:35.661Z,7.63
2022-12-18T13:58:06.815Z,7.07
2022-12-18T14:00:35.466Z,7.68
2022-12-18T14:03:02.339Z,7.55
2022-12-18T14:05:32.100Z,7.00
2022-12-18T14:08:04.292Z,7.90
2022-12-18T14:10:48.475Z,6.03
2022-12-18T14:13:31.878Z,5.22
2022-12-18T14:16:05.018Z,6.78
2022-12-18T14:19:08.419Z,5.93
2022-12-18T14:21:41.937Z,6.45
2022-12-18T14:24:39.313Z,6.43
2022-12-18T14:27:26.947Z,6.68
2022-12-18T14:29:56.422Z,6.32
2022-12-18T14:32:31.612Z,6.63
2022-12-18T14:35:16.305Z,4.95
2022-12-18T14:54:02.806Z,4.38
2022-12-18T15:12:48.577Z,3.90
2022-12-18T15:19:23.074Z,4.03
2022-12-18T15:22:50.337Z,3.63
2022-12-18T15:25:57.912Z,2.58
2022-12-18T15:29:09.087Z,3.60
2022-12-18T15:32:23.331Z,2.80
2022-12-18T15:36:26.792Z,3.40
2022-12-18T15:39:21.626Z,3.53
2022-12-18T15:42:13.573Z,2.67
2022-12-18T15:44:48.573Z,3.03
2022-12-18T15:47:37.777Z,3.27
2022-12-18T15:50:15.102Z,3.15
2022-12-18T15:52:57.996Z,3.08
2022-12-18T15:56:00.758Z,3.20
2022-12-18T15:58:48.908Z,3.80
2022-12-18T16:01:18.913Z,2.70
2022-12-18T16:03:46.123Z,3.47
2022-12-18T16:06:40.305Z,3.78
2022-12-18T16:09:26.515Z,2.65
2022-12-18T16:11:57.831Z,3.50
2022-12-18T16:14:27.729Z,3.00
2022-12-18T16:17:04.732Z,2.60
2022-12-18T16:19:37.180Z,3.20
2022-12-18T16:22:21.780Z,2.00
2022-12-18T16:24:52.197Z,3.60
2022-12-18T16:27:23.015Z,4.50
2022-12-18T16:29:51.400Z,5.47
2022-12-18T16:32:22.269Z,4.13
2022-12-18T16:34:53.370Z,2.65
2022-12-18T16:37:22.328Z,3.20
2022-12-18T16:39:51.497Z,3.33
2022-12-18T16:42:20.641Z,2.80
2022-12-18T16:44:48.820Z,3.25
2022-12-18T16:47:16.123Z,2.83
2022-12-18T16:49:46.167Z,2.78
2022-12-18T16:52:16.964Z,2.80
2022-12-18T16:54:46.140Z,3.17
2022-12-18T16:57:15.752Z,3.20
2022-12-18T16:59:45.874Z,2.67
2022-12-18T17:02:20.297Z,2.08
2022-12-18T17:04:50.386Z,2.13
2022-12-18T17:07:17.151Z,2.47
2022-12-18T17:09:43.761Z,2.00
2022-12-18T17:12:10.788Z,3.33
2022-12-18T17:14:37.779Z,2.10
2022-12-18T17:17:21.901Z,2.10
2022-12-18T17:19:49.707Z,2.08
2022-12-18T17:22:16.874Z,2.38
2022-12-18T17:24:46.589Z,1.58
2022-12-18T17:27:13.273Z,2.22
2022-12-18T17:29:45.356Z,1.57
2022-12-18T17:32:17.902Z,1.30
2022-12-18T17:34:44.572Z,2.20
2022-12-18T17:37:11.342Z,0.93
2022-12-18T17:39:37.945Z,1.50
2022-12-18T17:42:05.308Z,1.60
2022-12-18T17:44:34.396Z,1.50
2022-12-18T17:47:01.584Z,1.33
2022-12-18T17:49:28.569Z,1.13
2022-12-18T17:51:55.509Z,1.55
2022-12-18T17:54:22.132Z,0.83
2022-12-18T17:56:48.853Z,1.27
2022-12-18T17:59:18.007Z,0.90
2022-12-18T18:01:47.684Z,1.10
2022-12-18T18:04:15.211Z,1.13
2022-12-18T18:06:41.916Z,1.40
2022-12-18T18:09:15.918Z,1.20
2022-12-18T18:12:04.565Z,0.68
2022-12-18T18:14:33.131Z,1.40
2022-12-18T18:17:04.742Z,1.20
2022-12-18T18:19:32.835Z,1.33
2022-12-18T18:21:59.546Z,1.10
2022-12-18T18:24:30.010Z,0.80
2022-12-18T18:27:01.192Z,0.98
2022-12-18T18:29:32.308Z,1.38
2022-12-18T18:31:59.243Z,1.50
2022-12-18T18:34:28.397Z,0.85
2022-12-18T18:36:57.324Z,1.08
2022-12-18T18:39:24.341Z,1.30
2022-12-18T18:41:52.940Z,1.30
2022-12-18T18:44:28.153Z,1.03
2022-12-18T18:46:56.489Z,1.48
2022-12-18T18:49:27.978Z,1.15
2022-12-18T18:51:56.985Z,1.80
2022-12-18T18:54:24.358Z,1.17
2022-12-18T18:59:38.288Z,1.77
2022-12-18T19:02:05.382Z,1.60
2022-12-18T19:04:33.893Z,1.70
2022-12-18T19:07:01.559Z,1.40
2022-12-18T19:09:30.115Z,1.10
2022-12-18T19:12:16.934Z,1.33
2022-12-18T19:14:44.095Z,2.10
2022-12-18T19:17:11.276Z,2.00
2022-12-18T19:19:38.179Z,0.88
2022-12-18T19:22:05.026Z,1.40
2022-12-18T19:24:33.127Z,2.10
2022-12-18T19:26:59.785Z,1.35
2022-12-18T19:29:26.313Z,1.27
2022-12-18T19:31:58.873Z,1.92
2022-12-18T19:34:27.718Z,1.93
2022-12-18T19:36:59.735Z,1.00
2022-12-18T19:39:26.526Z,1.67
2022-12-18T19:41:53.201Z,1.27
2022-12-18T19:44:20.873Z,1.60
2022-12-18T19:46:51.772Z,1.40
2022-12-18T19:49:18.456Z,1.73
2022-12-18T19:51:45.836Z,1.63
2022-12-18T19:54:17.006Z,1.20
2022-12-18T19:56:45.137Z,1.52
2022-12-18T19:59:11.993Z,1.37
2022-12-18T20:01:42.143Z,1.30
2022-12-18T20:04:09.177Z,1.50
2022-12-18T20:06:46.840Z,1.80
2022-12-18T20:09:14.047Z,1.33
2022-12-18T20:11:42.058Z,2.17
2022-12-18T20:14:13.646Z,1.00
2022-12-18T20:16:41.721Z,1.45
2022-12-18T20:19:12.185Z,2.05
2022-12-18T20:21:39.435Z,1.77
2022-12-18T20:24:08.307Z,1.93
2022-12-18T20:26:35.127Z,1.48
2022-12-18T20:29:01.794Z,2.05
2022-12-18T20:31:28.402Z,1.33
2022-12-18T20:34:00.228Z,1.98
2022-12-18T20:36:29.552Z,1.77
2022-12-18T20:39:04.054Z,2.10
2022-12-18T20:41:38.197Z,1.67
2022-12-18T20:44:23.623Z,1.13
2022-12-18T20:46:56.504Z,1.98
2022-12-18T20:49:26.032Z,1.50
2022-12-18T20:51:54.230Z,1.60
2022-12-18T20:54:24.037Z,0.75
2022-12-18T20:56:53.542Z,1.30
2022-12-18T20:59:20.729Z,2.15
2022-12-18T21:01:51.896Z,1.73
2022-12-18T21:04:21.338Z,1.50
2022-12-18T21:06:53.375Z,2.00
2022-12-18T21:09:24.575Z,1.77
2022-12-18T21:12:13.951Z,1.92
2022-12-18T21:14:41.534Z,1.67
2022-12-18T21:17:09.330Z,1.60
2022-12-18T21:19:36.318Z,1.27
2022-12-18T21:22:03.736Z,1.40
2022-12-18T21:24:32.729Z,1.25
2022-12-18T21:27:03.308Z,1.67
2022-12-18T21:29:32.487Z,1.35
2022-12-18T21:31:59.477Z,1.30
2022-12-18T21:34:28.862Z,1.42
2022-12-18T21:36:57.332Z,2.47
2022-12-18T21:39:25.170Z,1.23
2022-12-18T21:42:10.969Z,1.02
2022-12-18T21:44:41.583Z,1.50
2022-12-18T21:47:14.555Z,1.52
2022-12-18T21:49:48.387Z,1.48
2022-12-18T21:52:14.938Z,1.33
2022-12-18T21:54:41.548Z,1.10
2022-12-18T21:57:08.781Z,1.17
2022-12-18T21:59:40.528Z,1.23
2022-12-18T22:02:12.185Z,1.33
2022-12-18T22:04:39.173Z,1.07
2022-12-18T22:07:06.175Z,0.50
2022-12-18T22:09:33.431Z,1.35
2022-12-18T22:12:00.602Z,1.27
2022-12-18T22:14:30.230Z,0.80
2022-12-18T22:16:57.446Z,0.80
2022-12-18T22:19:25.802Z,1.10
2022-12-18T22:21:53.186Z,1.00
2022-12-18T22:24:25.127Z,0.70
2022-12-18T22:26:54.190Z,0.60
2022-12-18T22:29:44.706Z,0.63
2022-12-18T22:32:16.357Z,0.82
2022-12-18T22:34:43.614Z,0.90
2022-12-18T22:37:12.069Z,1.00
2022-12-18T22:39:38.634Z,1.00
2022-12-18T22:42:05.362Z,1.97
2022-12-18T22:44:32.072Z,1.17
2022-12-18T22:47:05.928Z,1.40
2022-12-18T22:49:34.712Z,1.20
2022-12-18T22:52:02.180Z,1.63
2022-12-18T22:54:28.747Z,1.30
2022-12-18T22:56:55.649Z,1.40
2022-12-18T22:59:25.396Z,1.55
2022-12-18T23:01:57.967Z,1.30
2022-12-18T23:04:35.924Z,1.70
2022-12-18T23:07:04.561Z,1.27
2022-12-18T23:09:31.369Z,1.33
2022-12-18T23:11:57.939Z,1.70
2022-12-18T23:14:24.438Z,1.52
2022-12-18T23:16:51.477Z,1.38
2022-12-18T23:19:19.700Z,1.30
2022-12-18T23:21:46.285Z,1.50
2022-12-18T23:24:13.105Z,1.10
2022-12-18T23:26:39.624Z,0.85
2022-12-18T23:29:06.414Z,1.40
2022-12-18T23:31:35.528Z,1.50
2022-12-18T23:34:05.748Z,1.70
2022-12-18T23:36:37.631Z,1.30
2022-12-18T23:39:12.824Z,1.20
2022-12-18T23:41:55.103Z,1.20
2022-12-18T23:44:21.709Z,1.30
2022-12-18T23:46:48.209Z,1.15
2022-12-18T23:49:14.837Z,1.15
2022-12-18T23:51:41.408Z,1.20
2022-12-18T23:54:09.447Z,0.50
2022-12-18T23:56:36.399Z,0.93
2022-12-18T23:59:03.147Z,0.70
